sensor_id;sensor_type;location;lat;lon;timestamp;pressure;altitude;pressure_sealevel;temperature;humidity
46718;BME280;32448;44.960;-0.698;2023-04-08T00:00:47;101520.28;;;10.18;100.00
46718;BME280;32448;44.960;-0.698;2023-04-08T00:03:19;101518.41;;;10.14;100.00
46718;BME280;32448;44.960;-0.698;2023-04-08T00:05:46;101512.19;;;10.10;100.00
46718;BME280;32448;44.960;-0.698;2023-04-08T00:08:13;101514.72;;;10.07;100.00
46718;BME280;32448;44.960;-0.698;2023-04-08T00:10:40;101518.09;;;10.03;100.00
46718;BME280;32448;44.960;-0.698;2023-04-08T00:13:07;101511.03;;;10.01;100.00
46718;BME280;32448;44.960;-0.698;2023-04-08T00:15:35;101517.00;;;9.97;100.00
46718;BME280;32448;44.960;-0.698;2023-04-08T00:18:02;101511.75;;;9.97;100.00
46718;BME280;32448;44.960;-0.698;2023-04-08T00:20:29;101505.59;;;9.95;100.00
46718;BME280;32448;44.960;-0.698;2023-04-08T00:22:56;101503.66;;;9.88;100.00
46718;BME280;32448;44.960;-0.698;2023-04-08T00:25:23;101503.47;;;9.81;100.00
46718;BME280;32448;44.960;-0.698;2023-04-08T00:27:51;101504.25;;;9.79;100.00
46718;BME280;32448;44.960;-0.698;2023-04-08T00:30:18;101511.75;;;9.68;100.00
46718;BME280;32448;44.960;-0.698;2023-04-08T00:32:45;101507.78;;;9.54;100.00
46718;BME280;32448;44.960;-0.698;2023-04-08T00:35:12;101502.38;;;9.48;100.00
46718;BME280;32448;44.960;-0.698;2023-04-08T00:37:40;101504.72;;;9.40;100.00
46718;BME280;32448;44.960;-0.698;2023-04-08T00:40:07;101510.03;;;9.43;100.00
46718;BME280;32448;44.960;-0.698;2023-04-08T00:42:34;101503.81;;;9.38;100.00
46718;BME280;32448;44.960;-0.698;2023-04-08T00:45:01;101504.53;;;9.34;100.00
46718;BME280;32448;44.960;-0.698;2023-04-08T00:47:29;101503.59;;;9.32;100.00
46718;BME280;32448;44.960;-0.698;2023-04-08T00:49:57;101508.59;;;9.26;100.00
46718;BME280;32448;44.960;-0.698;2023-04-08T00:52:24;101504.63;;;9.12;100.00
46718;BME280;32448;44.960;-0.698;2023-04-08T00:54:51;101506.09;;;9.04;100.00
46718;BME280;32448;44.960;-0.698;2023-04-08T00:57:18;101502.47;;;9.00;100.00
46718;BME280;32448;44.960;-0.698;2023-04-08T00:59:45;101494.59;;;8.99;100.00
46718;BME280;32448;44.960;-0.698;2023-04-08T01:02:22;101496.25;;;8.97;100.00
46718;BME280;32448;44.960;-0.698;2023-04-08T01:07:27;101498.88;;;8.97;100.00
46718;BME280;32448;44.960;-0.698;2023-04-08T01:09:55;101507.44;;;8.93;100.00
46718;BME280;32448;44.960;-0.698;2023-04-08T01:12:27;101503.25;;;8.98;100.00
46718;BME280;32448;44.960;-0.698;2023-04-08T01:15:13;101500.59;;;8.96;100.00
46718;BME280;32448;44.960;-0.698;2023-04-08T01:17:41;101496.78;;;8.87;100.00
46718;BME280;32448;44.960;-0.698;2023-04-08T01:20:09;101512.22;;;8.81;100.00
46718;BME280;32448;44.960;-0.698;2023-04-08T01:25:32;101516.78;;;8.40;100.00
46718;BME280;32448;44.960;-0.698;2023-04-08T01:28:00;101513.59;;;8.25;100.00
46718;BME280;32448;44.960;-0.698;2023-04-08T01:30:29;101508.59;;;8.09;100.00
46718;BME280;32448;44.960;-0.698;2023-04-08T01:32:57;101505.47;;;7.95;100.00
46718;BME280;32448;44.960;-0.698;2023-04-08T01:35:25;101503.38;;;7.86;100.00
46718;BME280;32448;44.960;-0.698;2023-04-08T01:37:54;101502.97;;;7.76;100.00
46718;BME280;32448;44.960;-0.698;2023-04-08T01:40:24;101505.13;;;7.65;100.00
46718;BME280;32448;44.960;-0.698;2023-04-08T01:42:54;101506.47;;;7.55;100.00
46718;BME280;32448;44.960;-0.698;2023-04-08T01:45:22;101503.63;;;7.49;100.00
46718;BME280;32448;44.960;-0.698;2023-04-08T01:47:49;101509.47;;;7.44;100.00
46718;BME280;32448;44.960;-0.698;2023-04-08T01:50:18;101505.72;;;7.37;100.00
46718;BME280;32448;44.960;-0.698;2023-04-08T01:52:46;101511.47;;;7.30;100.00
46718;BME280;32448;44.960;-0.698;2023-04-08T01:55:15;101509.66;;;7.27;100.00
46718;BME280;32448;44.960;-0.698;2023-04-08T01:57:43;101508.19;;;7.13;100.00
46718;BME280;32448;44.960;-0.698;2023-04-08T02:00:13;101510.34;;;7.03;100.00
46718;BME280;32448;44.960;-0.698;2023-04-08T02:02:49;101512.66;;;6.97;100.00
46718;BME280;32448;44.960;-0.698;2023-04-08T02:05:17;101507.13;;;6.89;100.00
46718;BME280;32448;44.960;-0.698;2023-04-08T02:07:46;101494.88;;;6.86;100.00
46718;BME280;32448;44.960;-0.698;2023-04-08T02:10:13;101504.22;;;6.81;100.00
46718;BME280;32448;44.960;-0.698;2023-04-08T02:12:41;101505.78;;;6.78;100.00
46718;BME280;32448;44.960;-0.698;2023-04-08T02:15:10;101510.50;;;6.67;100.00
46718;BME280;32448;44.960;-0.698;2023-04-08T02:17:39;101504.34;;;6.65;100.00
46718;BME280;32448;44.960;-0.698;2023-04-08T02:20:11;101506.81;;;6.62;100.00
46718;BME280;32448;44.960;-0.698;2023-04-08T02:22:43;101518.44;;;6.51;100.00
46718;BME280;32448;44.960;-0.698;2023-04-08T02:25:12;101518.22;;;6.46;100.00
46718;BME280;32448;44.960;-0.698;2023-04-08T02:27:39;101517.19;;;6.43;100.00
46718;BME280;32448;44.960;-0.698;2023-04-08T02:30:10;101519.50;;;6.37;100.00
46718;BME280;32448;44.960;-0.698;2023-04-08T02:32:38;101525.84;;;6.24;100.00
46718;BME280;32448;44.960;-0.698;2023-04-08T02:35:05;101528.09;;;6.16;100.00
46718;BME280;32448;44.960;-0.698;2023-04-08T02:37:32;101525.34;;;6.13;100.00
46718;BME280;32448;44.960;-0.698;2023-04-08T02:39:59;101522.53;;;6.09;100.00
46718;BME280;32448;44.960;-0.698;2023-04-08T02:42:27;101532.72;;;6.04;100.00
46718;BME280;32448;44.960;-0.698;2023-04-08T02:44:55;101531.59;;;5.99;100.00
46718;BME280;32448;44.960;-0.698;2023-04-08T02:47:22;101536.84;;;6.01;100.00
46718;BME280;32448;44.960;-0.698;2023-04-08T02:49:50;101540.25;;;6.00;100.00
46718;BME280;32448;44.960;-0.698;2023-04-08T02:52:19;101545.03;;;5.91;100.00
46718;BME280;32448;44.960;-0.698;2023-04-08T02:54:46;101541.53;;;5.90;100.00
46718;BME280;32448;44.960;-0.698;2023-04-08T02:57:13;101548.22;;;5.86;100.00
46718;BME280;32448;44.960;-0.698;2023-04-08T02:59:40;101538.06;;;5.90;100.00
46718;BME280;32448;44.960;-0.698;2023-04-08T03:02:07;101539.44;;;5.83;100.00
46718;BME280;32448;44.960;-0.698;2023-04-08T03:04:34;101542.34;;;5.89;100.00
46718;BME280;32448;44.960;-0.698;2023-04-08T03:07:01;101539.28;;;5.80;100.00
46718;BME280;32448;44.960;-0.698;2023-04-08T03:09:28;101524.00;;;5.68;100.00
46718;BME280;32448;44.960;-0.698;2023-04-08T03:11:56;101527.34;;;5.66;100.00
46718;BME280;32448;44.960;-0.698;2023-04-08T03:14:23;101540.31;;;5.66;100.00
46718;BME280;32448;44.960;-0.698;2023-04-08T03:16:50;101538.25;;;5.59;100.00
46718;BME280;32448;44.960;-0.698;2023-04-08T03:19:17;101544.84;;;5.52;100.00
46718;BME280;32448;44.960;-0.698;2023-04-08T03:21:44;101545.56;;;5.49;100.00
46718;BME280;32448;44.960;-0.698;2023-04-08T03:24:11;101550.03;;;5.52;100.00
46718;BME280;32448;44.960;-0.698;2023-04-08T03:26:38;101545.78;;;5.54;100.00
46718;BME280;32448;44.960;-0.698;2023-04-08T03:29:06;101546.31;;;5.47;100.00
46718;BME280;32448;44.960;-0.698;2023-04-08T03:31:33;101543.78;;;5.48;100.00
46718;BME280;32448;44.960;-0.698;2023-04-08T03:34:00;101537.72;;;5.48;100.00
46718;BME280;32448;44.960;-0.698;2023-04-08T03:36:27;101537.56;;;5.45;100.00
46718;BME280;32448;44.960;-0.698;2023-04-08T03:38:55;101536.22;;;5.35;100.00
46718;BME280;32448;44.960;-0.698;2023-04-08T03:41:25;101532.47;;;5.30;100.00
46718;BME280;32448;44.960;-0.698;2023-04-08T03:43:52;101542.03;;;5.31;100.00
46718;BME280;32448;44.960;-0.698;2023-04-08T03:46:19;101537.19;;;5.37;100.00
46718;BME280;32448;44.960;-0.698;2023-04-08T03:48:48;101539.84;;;5.39;100.00
46718;BME280;32448;44.960;-0.698;2023-04-08T03:51:15;101550.88;;;5.35;100.00
46718;BME280;32448;44.960;-0.698;2023-04-08T03:53:43;101552.41;;;5.31;100.00
46718;BME280;32448;44.960;-0.698;2023-04-08T03:56:11;101553.16;;;5.29;100.00
46718;BME280;32448;44.960;-0.698;2023-04-08T03:58:38;101553.81;;;5.25;100.00
46718;BME280;32448;44.960;-0.698;2023-04-08T04:01:05;101559.16;;;5.28;100.00
46718;BME280;32448;44.960;-0.698;2023-04-08T04:03:32;101557.69;;;5.33;100.00
46718;BME280;32448;44.960;-0.698;2023-04-08T04:05:59;101556.88;;;5.34;100.00
46718;BME280;32448;44.960;-0.698;2023-04-08T04:08:26;101556.31;;;5.39;100.00
46718;BME280;32448;44.960;-0.698;2023-04-08T04:10:55;101558.97;;;5.41;100.00
46718;BME280;32448;44.960;-0.698;2023-04-08T04:13:22;101567.47;;;5.38;100.00
46718;BME280;32448;44.960;-0.698;2023-04-08T04:15:49;101566.00;;;5.43;100.00
46718;BME280;32448;44.960;-0.698;2023-04-08T04:18:16;101566.75;;;5.41;100.00
46718;BME280;32448;44.960;-0.698;2023-04-08T04:20:43;101568.44;;;5.40;100.00
46718;BME280;32448;44.960;-0.698;2023-04-08T04:23:10;101552.19;;;5.27;100.00
46718;BME280;32448;44.960;-0.698;2023-04-08T04:25:39;101568.22;;;5.36;100.00
46718;BME280;32448;44.960;-0.698;2023-04-08T04:28:06;101566.19;;;5.30;100.00
46718;BME280;32448;44.960;-0.698;2023-04-08T04:30:36;101577.06;;;5.23;100.00
46718;BME280;32448;44.960;-0.698;2023-04-08T04:33:03;101580.16;;;5.16;100.00
46718;BME280;32448;44.960;-0.698;2023-04-08T04:35:31;101581.38;;;5.06;100.00
46718;BME280;32448;44.960;-0.698;2023-04-08T04:37:59;101586.97;;;4.98;100.00
46718;BME280;32448;44.960;-0.698;2023-04-08T04:40:30;101591.75;;;4.90;100.00
46718;BME280;32448;44.960;-0.698;2023-04-08T04:42:57;101588.34;;;4.91;100.00
46718;BME280;32448;44.960;-0.698;2023-04-08T04:45:24;101598.53;;;4.88;100.00
46718;BME280;32448;44.960;-0.698;2023-04-08T04:47:52;101591.75;;;4.90;100.00
46718;BME280;32448;44.960;-0.698;2023-04-08T04:50:19;101586.56;;;4.90;100.00
46718;BME280;32448;44.960;-0.698;2023-04-08T04:52:46;101589.78;;;4.86;100.00
46718;BME280;32448;44.960;-0.698;2023-04-08T04:55:13;101586.81;;;4.79;100.00
46718;BME280;32448;44.960;-0.698;2023-04-08T04:57:41;101594.66;;;4.80;100.00
46718;BME280;32448;44.960;-0.698;2023-04-08T05:00:10;101598.31;;;4.84;100.00
46718;BME280;32448;44.960;-0.698;2023-04-08T05:02:37;101594.91;;;4.85;100.00
46718;BME280;32448;44.960;-0.698;2023-04-08T05:05:05;101599.59;;;4.75;100.00
46718;BME280;32448;44.960;-0.698;2023-04-08T05:07:36;101600.72;;;4.81;100.00
46718;BME280;32448;44.960;-0.698;2023-04-08T05:10:03;101598.53;;;4.88;100.00
46718;BME280;32448;44.960;-0.698;2023-04-08T05:12:30;101602.19;;;4.92;100.00
46718;BME280;32448;44.960;-0.698;2023-04-08T05:14:57;101600.59;;;4.94;100.00
46718;BME280;32448;44.960;-0.698;2023-04-08T05:17:27;101604.88;;;4.93;100.00
46718;BME280;32448;44.960;-0.698;2023-04-08T05:19:54;101605.50;;;4.89;100.00
46718;BME280;32448;44.960;-0.698;2023-04-08T05:22:22;101605.50;;;4.89;100.00
46718;BME280;32448;44.960;-0.698;2023-04-08T05:24:49;101605.59;;;4.91;100.00
46718;BME280;32448;44.960;-0.698;2023-04-08T05:27:16;101608.34;;;4.94;100.00
46718;BME280;32448;44.960;-0.698;2023-04-08T05:29:43;101608.97;;;4.90;100.00
46718;BME280;32448;44.960;-0.698;2023-04-08T05:32:10;101611.75;;;4.93;100.00
46718;BME280;32448;44.960;-0.698;2023-04-08T05:34:37;101607.19;;;4.89;100.00
46718;BME280;32448;44.960;-0.698;2023-04-08T05:37:04;101613.28;;;4.89;100.00
46718;BME280;32448;44.960;-0.698;2023-04-08T05:39:31;101613.19;;;4.88;100.00
46718;BME280;32448;44.960;-0.698;2023-04-08T05:41:58;101624.78;;;4.94;100.00
46718;BME280;32448;44.960;-0.698;2023-04-08T05:44:25;101622.09;;;4.93;100.00
46718;BME280;32448;44.960;-0.698;2023-04-08T05:46:52;101623.63;;;4.89;100.00
46718;BME280;32448;44.960;-0.698;2023-04-08T05:49:19;101623.81;;;4.92;100.00
46718;BME280;32448;44.960;-0.698;2023-04-08T05:51:47;101628.72;;;4.88;100.00
46718;BME280;32448;44.960;-0.698;2023-04-08T05:54:14;101634.09;;;4.91;100.00
46718;BME280;32448;44.960;-0.698;2023-04-08T05:56:41;101633.19;;;4.90;100.00
46718;BME280;32448;44.960;-0.698;2023-04-08T05:59:08;101627.28;;;4.93;100.00
46718;BME280;32448;44.960;-0.698;2023-04-08T06:01:35;101631.09;;;4.99;100.00
46718;BME280;32448;44.960;-0.698;2023-04-08T06:04:02;101637.06;;;4.98;100.00
46718;BME280;32448;44.960;-0.698;2023-04-08T06:06:29;101638.94;;;5.01;100.00
46718;BME280;32448;44.960;-0.698;2023-04-08T06:08:57;101635.03;;;5.09;100.00
46718;BME280;32448;44.960;-0.698;2023-04-08T06:11:24;101627.28;;;5.25;100.00
46718;BME280;32448;44.960;-0.698;2023-04-08T06:13:51;101635.00;;;5.41;100.00
46718;BME280;32448;44.960;-0.698;2023-04-08T06:16:18;101636.44;;;5.53;100.00
46718;BME280;32448;44.960;-0.698;2023-04-08T06:18:47;101635.28;;;5.64;100.00
46718;BME280;32448;44.960;-0.698;2023-04-08T06:21:14;101639.25;;;5.73;100.00
46718;BME280;32448;44.960;-0.698;2023-04-08T06:23:42;101644.09;;;5.83;100.00
46718;BME280;32448;44.960;-0.698;2023-04-08T06:26:09;101644.41;;;5.90;100.00
46718;BME280;32448;44.960;-0.698;2023-04-08T06:28:36;101643.03;;;5.96;100.00
46718;BME280;32448;44.960;-0.698;2023-04-08T06:31:03;101646.06;;;6.05;100.00
46718;BME280;32448;44.960;-0.698;2023-04-08T06:33:30;101645.25;;;6.24;100.00
46718;BME280;32448;44.960;-0.698;2023-04-08T06:36:01;101644.72;;;6.31;100.00
46718;BME280;32448;44.960;-0.698;2023-04-08T06:38:29;101645.94;;;6.38;100.00
46718;BME280;32448;44.960;-0.698;2023-04-08T06:41:01;101652.63;;;6.52;100.00
46718;BME280;32448;44.960;-0.698;2023-04-08T06:43:28;101658.22;;;6.60;100.00
46718;BME280;32448;44.960;-0.698;2023-04-08T06:45:56;101647.50;;;6.71;100.00
46718;BME280;32448;44.960;-0.698;2023-04-08T06:48:24;101660.03;;;6.80;100.00
46718;BME280;32448;44.960;-0.698;2023-04-08T06:50:58;101669.78;;;6.85;100.00
46718;BME280;32448;44.960;-0.698;2023-04-08T06:53:26;101668.38;;;6.92;100.00
46718;BME280;32448;44.960;-0.698;2023-04-08T06:55:58;101664.34;;;6.99;100.00
46718;BME280;32448;44.960;-0.698;2023-04-08T06:58:26;101671.06;;;7.13;100.00
46718;BME280;32448;44.960;-0.698;2023-04-08T07:00:54;101674.91;;;7.21;100.00
46718;BME280;32448;44.960;-0.698;2023-04-08T07:03:25;101677.09;;;7.31;100.00
46718;BME280;32448;44.960;-0.698;2023-04-08T07:05:55;101677.09;;;7.31;100.00
46718;BME280;32448;44.960;-0.698;2023-04-08T07:08:22;101680.94;;;7.39;100.00
46718;BME280;32448;44.960;-0.698;2023-04-08T07:10:50;101675.78;;;7.41;100.00
46718;BME280;32448;44.960;-0.698;2023-04-08T07:13:18;101683.28;;;7.54;100.00
46718;BME280;32448;44.960;-0.698;2023-04-08T07:15:45;101681.09;;;7.63;100.00
46718;BME280;32448;44.960;-0.698;2023-04-08T07:18:12;101675.41;;;7.72;100.00
46718;BME280;32448;44.960;-0.698;2023-04-08T07:20:39;101682.59;;;7.77;100.00
46718;BME280;32448;44.960;-0.698;2023-04-08T07:23:07;101683.16;;;7.91;100.00
46718;BME280;32448;44.960;-0.698;2023-04-08T07:25:34;101681.03;;;8.01;100.00
46718;BME280;32448;44.960;-0.698;2023-04-08T07:28:02;101683.31;;;8.15;100.00
46718;BME280;32448;44.960;-0.698;2023-04-08T07:30:29;101686.22;;;8.22;100.00
46718;BME280;32448;44.960;-0.698;2023-04-08T07:32:56;101689.44;;;8.36;100.00
46718;BME280;32448;44.960;-0.698;2023-04-08T07:35:26;101684.59;;;8.45;100.00
46718;BME280;32448;44.960;-0.698;2023-04-08T07:37:53;101680.31;;;8.47;100.00
46718;BME280;32448;44.960;-0.698;2023-04-08T07:40:21;101680.09;;;8.63;100.00
46718;BME280;32448;44.960;-0.698;2023-04-08T07:42:48;101687.34;;;8.70;100.00
46718;BME280;32448;44.960;-0.698;2023-04-08T07:45:15;101681.09;;;8.89;100.00
46718;BME280;32448;44.960;-0.698;2023-04-08T07:47:42;101679.44;;;9.13;100.00
46718;BME280;32448;44.960;-0.698;2023-04-08T07:50:10;101678.31;;;9.31;100.00
46718;BME280;32448;44.960;-0.698;2023-04-08T07:52:37;101679.75;;;9.46;100.00
46718;BME280;32448;44.960;-0.698;2023-04-08T07:55:04;101675.03;;;9.60;100.00
46718;BME280;32448;44.960;-0.698;2023-04-08T07:57:32;101677.34;;;9.76;100.00
46718;BME280;32448;44.960;-0.698;2023-04-08T07:59:59;101670.19;;;9.96;100.00
46718;BME280;32448;44.960;-0.698;2023-04-08T08:02:26;101669.09;;;10.16;100.00
46718;BME280;32448;44.960;-0.698;2023-04-08T08:04:54;101671.38;;;10.31;100.00
46718;BME280;32448;44.960;-0.698;2023-04-08T08:07:21;101680.69;;;10.50;100.00
46718;BME280;32448;44.960;-0.698;2023-04-08T08:09:48;101692.41;;;10.63;100.00
46718;BME280;32448;44.960;-0.698;2023-04-08T08:12:15;101687.69;;;10.78;100.00
46718;BME280;32448;44.960;-0.698;2023-04-08T08:14:42;101696.97;;;10.97;100.00
46718;BME280;32448;44.960;-0.698;2023-04-08T08:17:09;101696.63;;;11.14;100.00
46718;BME280;32448;44.960;-0.698;2023-04-08T08:19:36;101696.91;;;11.23;100.00
46718;BME280;32448;44.960;-0.698;2023-04-08T08:22:03;101708.81;;;11.44;100.00
46718;BME280;32448;44.960;-0.698;2023-04-08T08:24:30;101700.63;;;11.63;100.00
46718;BME280;32448;44.960;-0.698;2023-04-08T08:26:57;101709.66;;;11.74;100.00
46718;BME280;32448;44.960;-0.698;2023-04-08T08:29:26;101712.69;;;11.88;100.00
46718;BME280;32448;44.960;-0.698;2023-04-08T08:31:53;101718.16;;;11.97;100.00
46718;BME280;32448;44.960;-0.698;2023-04-08T08:34:20;101717.66;;;12.10;100.00
46718;BME280;32448;44.960;-0.698;2023-04-08T08:36:47;101723.06;;;12.18;100.00
46718;BME280;32448;44.960;-0.698;2023-04-08T08:39:14;101730.41;;;12.31;100.00
46718;BME280;32448;44.960;-0.698;2023-04-08T08:41:41;101727.34;;;12.47;100.00
46718;BME280;32448;44.960;-0.698;2023-04-08T08:44:08;101731.81;;;12.53;100.00
46718;BME280;32448;44.960;-0.698;2023-04-08T08:46:35;101734.75;;;12.65;100.00
46718;BME280;32448;44.960;-0.698;2023-04-08T08:49:02;101728.69;;;12.67;100.00
46718;BME280;32448;44.960;-0.698;2023-04-08T08:51:29;101730.13;;;12.91;100.00
46718;BME280;32448;44.960;-0.698;2023-04-08T08:54:02;101728.63;;;13.02;100.00
46718;BME280;32448;44.960;-0.698;2023-04-08T08:56:31;101728.00;;;13.13;100.00
46718;BME280;32448;44.960;-0.698;2023-04-08T08:58:59;101733.56;;;13.27;100.00
46718;BME280;32448;44.960;-0.698;2023-04-08T09:06:33;101732.72;;;13.72;100.00
46718;BME280;32448;44.960;-0.698;2023-04-08T09:09:00;101723.31;;;13.83;100.00
46718;BME280;32448;44.960;-0.698;2023-04-08T09:11:28;101721.53;;;13.80;100.00
46718;BME280;32448;44.960;-0.698;2023-04-08T09:13:56;101718.06;;;13.83;100.00
46718;BME280;32448;44.960;-0.698;2023-04-08T09:16:23;101725.69;;;13.71;100.00
46718;BME280;32448;44.960;-0.698;2023-04-08T09:18:50;101722.63;;;13.93;100.00
46718;BME280;32448;44.960;-0.698;2023-04-08T09:21:18;101723.88;;;14.13;100.00
46718;BME280;32448;44.960;-0.698;2023-04-08T09:23:49;101717.94;;;14.24;100.00
46718;BME280;32448;44.960;-0.698;2023-04-08T09:26:17;101715.28;;;14.25;100.00
46718;BME280;32448;44.960;-0.698;2023-04-08T09:31:54;101714.13;;;14.59;100.00
46718;BME280;32448;44.960;-0.698;2023-04-08T09:34:25;101716.97;;;14.71;100.00
46718;BME280;32448;44.960;-0.698;2023-04-08T09:36:53;101715.34;;;14.79;100.00
46718;BME280;32448;44.960;-0.698;2023-04-08T09:39:23;101713.53;;;14.77;100.00
46718;BME280;32448;44.960;-0.698;2023-04-08T09:41:50;101703.91;;;14.77;100.00
46718;BME280;32448;44.960;-0.698;2023-04-08T09:44:19;101701.53;;;14.96;100.00
46718;BME280;32448;44.960;-0.698;2023-04-08T09:51:58;101705.22;;;15.08;100.00
46718;BME280;32448;44.960;-0.698;2023-04-08T09:54:30;101702.81;;;15.26;100.00
46718;BME280;32448;44.960;-0.698;2023-04-08T09:57:03;101696.78;;;15.35;100.00
46718;BME280;32448;44.960;-0.698;2023-04-08T09:59:32;101698.69;;;15.48;100.00
46718;BME280;32448;44.960;-0.698;2023-04-08T10:02:00;101702.41;;;15.62;100.00
46718;BME280;32448;44.960;-0.698;2023-04-08T10:04:31;101699.75;;;15.61;90.47
46718;BME280;32448;44.960;-0.698;2023-04-08T10:07:03;101696.19;;;15.59;99.06
46718;BME280;32448;44.960;-0.698;2023-04-08T10:09:31;101698.03;;;15.64;87.67
46718;BME280;32448;44.960;-0.698;2023-04-08T10:12:00;101693.75;;;15.74;92.05
46718;BME280;32448;44.960;-0.698;2023-04-08T10:14:29;101699.75;;;15.62;77.98
46718;BME280;32448;44.960;-0.698;2023-04-08T10:19:42;101688.44;;;15.73;74.39
46718;BME280;32448;44.960;-0.698;2023-04-08T10:27:41;101699.50;;;16.23;85.54
46718;BME280;32448;44.960;-0.698;2023-04-08T10:32:55;101693.47;;;16.41;70.75
46718;BME280;32448;44.960;-0.698;2023-04-08T10:35:28;101696.22;;;16.53;70.11
46718;BME280;32448;44.960;-0.698;2023-04-08T10:37:56;101697.22;;;16.68;81.67
46718;BME280;32448;44.960;-0.698;2023-04-08T10:40:24;101704.31;;;16.74;73.15
46718;BME280;32448;44.960;-0.698;2023-04-08T10:42:55;101700.91;;;16.89;81.02
46718;BME280;32448;44.960;-0.698;2023-04-08T10:45:22;101697.38;;;16.93;71.49
46718;BME280;32448;44.960;-0.698;2023-04-08T10:47:49;101692.16;;;17.03;72.22
46718;BME280;32448;44.960;-0.698;2023-04-08T10:50:17;101686.84;;;16.96;67.21
46718;BME280;32448;44.960;-0.698;2023-04-08T10:52:45;101688.63;;;17.03;78.20
46718;BME280;32448;44.960;-0.698;2023-04-08T10:55:12;101685.19;;;17.24;80.50
46718;BME280;32448;44.960;-0.698;2023-04-08T10:57:39;101687.03;;;17.32;69.37
46718;BME280;32448;44.960;-0.698;2023-04-08T11:00:10;101682.63;;;17.40;62.73
46718;BME280;32448;44.960;-0.698;2023-04-08T11:02:37;101683.47;;;17.23;55.64
46718;BME280;32448;44.960;-0.698;2023-04-08T11:05:05;101679.97;;;17.39;65.25
46718;BME280;32448;44.960;-0.698;2023-04-08T11:07:33;101683.56;;;17.53;70.36
46718;BME280;32448;44.960;-0.698;2023-04-08T11:10:05;101680.03;;;17.51;57.83
46718;BME280;32448;44.960;-0.698;2023-04-08T11:12:33;101681.78;;;17.47;63.16
46718;BME280;32448;44.960;-0.698;2023-04-08T11:15:10;101689.81;;;17.66;65.49
46718;BME280;32448;44.960;-0.698;2023-04-08T11:17:39;101670.41;;;17.68;62.68
46718;BME280;32448;44.960;-0.698;2023-04-08T11:20:07;101680.94;;;17.59;60.38
46718;BME280;32448;44.960;-0.698;2023-04-08T11:22:34;101673.00;;;17.62;62.20
46718;BME280;32448;44.960;-0.698;2023-04-08T11:25:02;101677.47;;;17.72;63.44
46718;BME280;32448;44.960;-0.698;2023-04-08T11:27:29;101681.03;;;17.91;59.39
46718;BME280;32448;44.960;-0.698;2023-04-08T11:29:56;101675.75;;;18.05;61.91
46718;BME280;32448;44.960;-0.698;2023-04-08T11:32:24;101679.28;;;18.04;61.99
46718;BME280;32448;44.960;-0.698;2023-04-08T11:34:52;101673.09;;;18.23;65.93
46718;BME280;32448;44.960;-0.698;2023-04-08T11:37:19;101677.53;;;18.29;59.07
46718;BME280;32448;44.960;-0.698;2023-04-08T11:39:47;101666.06;;;18.17;56.14
46718;BME280;32448;44.960;-0.698;2023-04-08T11:42:28;101664.28;;;18.36;60.40
46718;BME280;32448;44.960;-0.698;2023-04-08T11:44:56;101662.50;;;18.52;58.67
46718;BME280;32448;44.960;-0.698;2023-04-08T11:47:32;101666.06;;;18.60;54.99
46718;BME280;32448;44.960;-0.698;2023-04-08T11:50:00;101661.63;;;18.54;57.16
46718;BME280;32448;44.960;-0.698;2023-04-08T11:52:46;101665.16;;;18.70;57.98
46718;BME280;32448;44.960;-0.698;2023-04-08T11:55:21;101666.00;;;18.87;51.45
46718;BME280;32448;44.960;-0.698;2023-04-08T11:57:48;101660.72;;;18.83;53.41
46718;BME280;32448;44.960;-0.698;2023-04-08T12:00:17;101656.28;;;18.86;52.88
46718;BME280;32448;44.960;-0.698;2023-04-08T12:02:45;101651.88;;;18.85;49.87
46718;BME280;32448;44.960;-0.698;2023-04-08T12:05:14;101648.31;;;18.99;53.91
46718;BME280;32448;44.960;-0.698;2023-04-08T12:07:42;101643.91;;;18.93;50.45
46718;BME280;32448;44.960;-0.698;2023-04-08T12:10:10;101640.34;;;18.97;45.98
46718;BME280;32448;44.960;-0.698;2023-04-08T12:12:37;101641.28;;;18.87;47.78
46718;BME280;32448;44.960;-0.698;2023-04-08T12:15:05;101639.44;;;19.01;51.11
46718;BME280;32448;44.960;-0.698;2023-04-08T12:17:33;101636.75;;;19.16;52.10
46718;BME280;32448;44.960;-0.698;2023-04-08T12:20:00;101641.09;;;19.26;47.17
46718;BME280;32448;44.960;-0.698;2023-04-08T12:22:27;101637.63;;;19.14;43.69
46718;BME280;32448;44.960;-0.698;2023-04-08T12:24:58;101621.75;;;19.08;43.78
46718;BME280;32448;44.960;-0.698;2023-04-08T12:27:30;101633.25;;;19.01;44.87
46718;BME280;32448;44.960;-0.698;2023-04-08T12:29:59;101625.28;;;19.10;43.45
46718;BME280;32448;44.960;-0.698;2023-04-08T12:32:27;101625.19;;;19.26;47.08
46718;BME280;32448;44.960;-0.698;2023-04-08T12:34:58;101625.13;;;19.43;49.95
46718;BME280;32448;44.960;-0.698;2023-04-08T12:37:25;101610.94;;;19.44;48.42
46718;BME280;32448;44.960;-0.698;2023-04-08T12:39:51;101615.31;;;19.59;51.38
46718;BME280;32448;44.960;-0.698;2023-04-08T12:42:19;101616.25;;;19.46;46.21
46718;BME280;32448;44.960;-0.698;2023-04-08T12:44:46;101619.75;;;19.58;40.74
46718;BME280;32448;44.960;-0.698;2023-04-08T12:47:13;101617.09;;;19.60;43.23
46718;BME280;32448;44.960;-0.698;2023-04-08T12:49:40;101614.50;;;19.43;41.92
46718;BME280;32448;44.960;-0.698;2023-04-08T12:52:15;101608.34;;;19.37;43.67
46718;BME280;32448;44.960;-0.698;2023-04-08T12:54:43;101600.28;;;19.56;44.94
46718;BME280;32448;44.960;-0.698;2023-04-08T12:57:10;101600.22;;;19.69;47.20
46718;BME280;32448;44.960;-0.698;2023-04-08T12:59:38;101599.28;;;19.76;45.06
46718;BME280;32448;44.960;-0.698;2023-04-08T13:02:05;101603.81;;;19.57;40.36
46718;BME280;32448;44.960;-0.698;2023-04-08T13:04:33;101600.22;;;19.69;45.45
46718;BME280;32448;44.960;-0.698;2023-04-08T13:07:01;101586.94;;;19.73;42.37
46718;BME280;32448;44.960;-0.698;2023-04-08T13:09:28;101585.88;;;19.91;49.86
46718;BME280;32448;44.960;-0.698;2023-04-08T13:11:56;101582.22;;;20.06;47.83